< < Back
Terminal Aerodrome Forecast


Current Version              Previous Versions:   1  2  3  4  5  6  7  8  9  

Terminal Aerodrome Forecast

183
FTUS42 KGSP 251731
TAFAND
TAF
KAND 251731Z 2518/2618 25004KT P6SM SKC
     FM260500 30003KT P6SM SKC
     FM261500 31005KT P6SM SKC=



Latest METAR

594
SAUS70 KWBC 251700 RRC
MTRAND
METAR KAND 251656Z AUTO VRB04KT 10SM CLR 21/08 A3004 RMK AO2 SLP168
T02060078


USA.gov is the U.S. government's official web portal to all federal, state and local government web resources and services.